Thunder radar more information blitzortung!


Radar de pluja more information rain snow radar


Visita la nostra xarxa de llocs de meteo:

Template documentation
and downloads

And another site



No particular awareness of the weather is required.    There are no Weather-warnings

Pagina Historial Weather Underground text

Diari Resum Juny 30, 2017 Unitats:  Imperial    Mètric   Tant
« Previous Dia
SegĂźent Dia »
Diari Setmana Mensual Anual Personalitzada
  Maxima: Minima: Media:
Temperatura: TemperatureC °F 15.2 °F 22.6 °F
Punt de rosada: DewpointC °F 3.7 °F 5.9 °F
Humitat: Humidity % 25 % 35 %
Wind Speed: WindSpeedKMH mph 0.0 mph 8.4 mph
RĂ fegues de vent: WindSpeedGustKMH mph - -
Vent:- - SW
Pression baro: PressurehPa in 1009.0 in -
Precipitacions: 0.0 in    
Historical Graphs
 
 
Dades de taula per Juny 30, 2017
Temps Temperatura Punt de rosada Pression baro Vent Wind Speed RĂ fegues de vent Humitat Rainfall Rate (Hourly)
TemperatureC °F DewpointC °F PressurehPa in Calm     Humidity % HourlyPrecipMM in
00:02 19.7 °F 8.7 °F 1009.0 in ESE 5.6 mph 5.6 mph 49 % 0.0 in
00:05 16.4 °F 6.5 °F 1010.0 in NNE 1.6 mph 4.8 mph 52 % 0.0 in
00:07 19.6 °F 8.6 °F 1009.0 in ESE 11.9 mph 11.9 mph 49 % 0.0 in
00:12 19.2 °F 8.2 °F 1010.0 in ESE 7.4 mph 7.4 mph 49 % 0.0 in
00:15 16.5 °F 6.6 °F 1010.0 in NW 1.6 mph 1.6 mph 52 % 0.0 in
00:25 16.6 °F 6.7 °F 1010.0 in NNW 1.6 mph 3.2 mph 52 % 0.0 in
00:35 16.7 °F 6.8 °F 1010.0 in NNE 3.2 mph 4.8 mph 52 % 0.0 in
00:45 16.6 °F 6.7 °F 1010.0 in Calm   1.6 mph 52 % 0.0 in
00:55 16.4 °F 6.5 °F 1010.0 in Calm     52 % 0.0 in
01:05 16.3 °F 6.7 °F 1010.0 in Calm   3.2 mph 53 % 0.0 in
01:15 16.2 °F 6.6 °F 1010.0 in Calm   1.6 mph 53 % 0.0 in
01:25 15.5 °F 5.9 °F 1010.7 in WSW 3.2 mph 4.8 mph 53 % 0.0 in
01:35 15.2 °F 5.9 °F 1010.7 in SW 1.6 mph 3.2 mph 54 % 0.0 in
01:45 15.3 °F 6.1 °F 1010.7 in SW 3.2 mph 4.8 mph 54 % 0.0 in
01:55 15.3 °F 6.1 °F 1010.7 in WSW 1.6 mph 4.8 mph 54 % 0.0 in
02:05 15.3 °F 6.3 °F 1010.7 in Calm   1.6 mph 55 % 0.0 in
02:15 15.3 °F 6.3 °F 1010.7 in Calm     55 % 0.0 in
02:25 15.6 °F 6.6 °F 1010.7 in WSW 1.6 mph 3.2 mph 55 % 0.0 in
02:35 16.0 °F 6.9 °F 1011.7 in WSW 3.2 mph 3.2 mph 55 % 0.0 in
02:45 16.7 °F 7.6 °F 1011.7 in Calm   3.2 mph 55 % 0.0 in
02:55 17.5 °F 8.1 °F 1011.7 in SW 1.6 mph 3.2 mph 54 % 0.0 in
03:05 17.6 °F 8.2 °F 1011.7 in South 1.6 mph 3.2 mph 54 % 0.0 in
03:15 18.2 °F 8.4 °F 1011.7 in SSE 3.2 mph 3.2 mph 53 % 0.0 in
03:25 18.5 °F 8.7 °F 1011.7 in Calm   3.2 mph 53 % 0.0 in
03:35 18.2 °F 8.4 °F 1010.7 in SW 1.6 mph 4.8 mph 53 % 0.0 in
03:45 18.5 °F 8.4 °F 1010.7 in SW 3.2 mph 4.8 mph 52 % 0.0 in
03:55 19.2 °F 8.8 °F 1011.7 in Calm   3.2 mph 51 % 0.0 in
04:05 19.9 °F 9.4 °F 1011.7 in NNW 1.6 mph 4.8 mph 51 % 0.0 in
04:15 20.6 °F 9.8 °F 1011.7 in ENE 1.6 mph 4.8 mph 50 % 0.0 in
04:25 20.7 °F 9.6 °F 1011.7 in East 4.8 mph 6.4 mph 49 % 0.0 in
04:35 21.2 °F 9.7 °F 1011.7 in ENE 3.2 mph 3.2 mph 48 % 0.0 in
04:45 21.2 °F 9.1 °F 1011.7 in SW 4.8 mph 6.4 mph 46 % 0.0 in
09:48 21.4 °F 8.6 °F 1012.8 in WSW 3.7 mph 4.2 mph 44 % 0.0 in
09:53 21.2 °F 8.1 °F 1012.8 in WNW 9.3 mph 9.3 mph 43 % 0.0 in
09:58 21.7 °F 8.6 °F 1012.8 in West 4.2 mph 4.2 mph 43 % 0.0 in
10:03 21.7 °F 8.2 °F 1012.8 in WSW 9.3 mph 9.3 mph 42 % 0.0 in
10:08 22.1 °F 8.6 °F 1012.8 in WSW 3.9 mph 3.9 mph 42 % 0.0 in
10:13 21.8 °F 8.3 °F 1011.7 in SSW 9.3 mph 9.3 mph 42 % 0.0 in
10:18 22.5 °F 8.9 °F 1011.7 in WSW 5.6 mph 5.6 mph 42 % 0.0 in
10:23 22.3 °F 8.4 °F 1011.7 in WNW 11.1 mph 11.1 mph 41 % 0.0 in
10:28 22.2 °F 7.9 °F 1011.7 in West 9.3 mph 9.3 mph 40 % 0.0 in
10:33 22.0 °F 7.4 °F 1011.7 in NW 14.8 mph 14.8 mph 39 % 0.0 in
10:38 22.4 °F 7.8 °F 1011.7 in West 13.0 mph 13.0 mph 39 % 0.0 in
10:43 22.3 °F 7.3 °F 1012.8 in SW 7.4 mph 9.5 mph 38 % 0.0 in
10:48 22.2 °F 7.2 °F 1012.8 in WSW 13.0 mph 13.0 mph 38 % 0.0 in
10:53 22.4 °F 7.4 °F 1012.8 in West 13.0 mph 13.0 mph 38 % 0.0 in
10:58 22.4 °F 7.0 °F 1011.7 in WNW 11.1 mph 11.1 mph 37 % 0.0 in
11:03 22.7 °F 7.3 °F 1011.7 in WNW 7.6 mph 7.6 mph 37 % 0.0 in
11:08 23.1 °F 7.2 °F 1011.7 in WSW 5.6 mph 5.6 mph 36 % 0.0 in
11:13 23.1 °F 7.2 °F 1011.7 in SW 11.1 mph 11.1 mph 36 % 0.0 in
11:18 23.5 °F 7.6 °F 1011.7 in West 14.0 mph 14.0 mph 36 % 0.0 in
11:23 23.5 °F 7.2 °F 1011.7 in SW 13.0 mph 13.0 mph 35 % 0.0 in
11:28 23.7 °F 7.3 °F 1011.7 in NE 11.1 mph 11.1 mph 35 % 0.0 in
11:33 24.1 °F 7.7 °F 1011.7 in NW 5.6 mph 5.6 mph 35 % 0.0 in
11:38 24.0 °F 7.6 °F 1011.7 in WSW 13.0 mph 13.0 mph 35 % 0.0 in
11:43 23.9 °F 7.1 °F 1011.7 in WNW 13.0 mph 13.0 mph 34 % 0.0 in
11:48 24.1 °F 7.3 °F 1011.7 in West 7.4 mph 7.4 mph 34 % 0.0 in
11:53 23.9 °F 6.7 °F 1011.7 in SW 9.3 mph 9.3 mph 33 % 0.0 in
11:58 24.3 °F 7.4 °F 1011.7 in WSW 7.4 mph 7.4 mph 34 % 0.0 in
12:03 24.9 °F 7.9 °F 1011.7 in SSW 7.4 mph 7.4 mph 34 % 0.0 in
12:08 24.7 °F 7.8 °F 1011.7 in South 9.3 mph 9.3 mph 34 % 0.0 in
12:13 24.9 °F 7.1 °F 1011.7 in WSW 9.3 mph 9.3 mph 32 % 0.0 in
12:18 25.0 °F 7.2 °F 1011.7 in West 5.6 mph 5.6 mph 32 % 0.0 in
12:23 25.3 °F 7.4 °F 1011.7 in NE 10.0 mph 10.0 mph 32 % 0.0 in
12:28 25.1 °F 6.8 °F 1011.7 in SW 11.1 mph 11.1 mph 31 % 0.0 in
12:33 25.1 °F 6.8 °F 1011.7 in NNE 5.6 mph 5.6 mph 31 % 0.0 in
12:38 25.7 °F 7.3 °F 1011.7 in West 8.7 mph 8.7 mph 31 % 0.0 in
12:43 25.1 °F 6.3 °F 1011.7 in NW 16.7 mph 16.7 mph 30 % 0.0 in
12:48 25.3 °F 6.0 °F 1011.7 in WSW 7.4 mph 7.4 mph 29 % 0.0 in
12:53 25.4 °F 6.6 °F 1011.7 in SW 12.2 mph 12.2 mph 30 % 0.0 in
12:58 25.2 °F 6.4 °F 1011.7 in ENE 11.1 mph 11.1 mph 30 % 0.0 in
13:03 25.0 °F 5.7 °F 1011.7 in West 12.2 mph 12.2 mph 29 % 0.0 in
13:08 24.9 °F 6.1 °F 1011.7 in WSW 5.6 mph 5.6 mph 30 % 0.0 in
13:13 25.6 °F 6.2 °F 1011.7 in SW 9.3 mph 9.3 mph 29 % 0.0 in
13:18 25.9 °F 6.5 °F 1011.7 in West 16.7 mph 16.7 mph 29 % 0.0 in
13:23 25.8 °F 6.4 °F 1011.7 in West 9.7 mph 9.7 mph 29 % 0.0 in
13:28 25.7 °F 6.3 °F 1011.7 in WSW 13.0 mph 13.0 mph 29 % 0.0 in
13:33 25.7 °F 5.8 °F 1011.7 in WSW 11.1 mph 11.1 mph 28 % 0.0 in
13:38 26.0 °F 6.1 °F 1011.7 in WSW 11.1 mph 11.1 mph 28 % 0.0 in
13:43 25.7 °F 5.8 °F 1011.7 in SW 11.1 mph 11.1 mph 28 % 0.0 in
13:48 25.8 °F 5.9 °F 1011.7 in NW 11.9 mph 11.9 mph 28 % 0.0 in
13:53 25.5 °F 5.7 °F 1011.7 in SW 14.8 mph 14.8 mph 28 % 0.0 in
13:58 25.8 °F 5.9 °F 1011.7 in SW 14.8 mph 14.8 mph 28 % 0.0 in
14:00 26.0 °F 6.1 °F 1011.7 in WNW 16.7 mph 16.7 mph 28 % 0.0 in
14:05 26.0 °F 6.1 °F 1011.7 in West 18.5 mph 18.5 mph 28 % 0.0 in
14:10 25.8 °F 5.4 °F 1011.7 in SW 14.8 mph 14.8 mph 27 % 0.0 in
14:15 26.2 °F 6.2 °F 1010.7 in WNW 5.8 mph 5.8 mph 28 % 0.0 in
14:20 26.5 °F 6.0 °F 1010.7 in West 12.2 mph 12.2 mph 27 % 0.0 in
14:25 26.3 °F 5.8 °F 1010.7 in West 14.5 mph 14.5 mph 27 % 0.0 in
14:30 26.2 °F 5.7 °F 1011.7 in West 9.3 mph 9.3 mph 27 % 0.0 in
14:35 26.3 °F 5.8 °F 1011.7 in West 14.8 mph 14.8 mph 27 % 0.0 in
14:40 26.5 °F 5.4 °F 1011.7 in West 9.3 mph 9.3 mph 26 % 0.0 in
14:45 26.6 °F 6.1 °F 1011.7 in SE 9.3 mph 9.3 mph 27 % 0.0 in
14:50 26.0 °F 5.0 °F 1011.7 in West 18.5 mph 18.5 mph 26 % 0.0 in
14:55 26.1 °F 5.1 °F 1011.7 in WSW 9.3 mph 9.5 mph 26 % 0.0 in
15:00 26.0 °F 5.0 °F 1011.7 in ENE 18.5 mph 18.5 mph 26 % 0.0 in
15:05 26.3 °F 5.3 °F 1011.7 in WNW 20.4 mph 20.4 mph 26 % 0.0 in
15:10 26.5 °F 5.4 °F 1011.7 in West 11.1 mph 11.1 mph 26 % 0.0 in
15:15 26.1 °F 5.1 °F 1011.7 in SW 27.8 mph 27.8 mph 26 % 0.0 in
15:20 26.6 °F 5.5 °F 1011.7 in SW 16.7 mph 16.7 mph 26 % 0.0 in
15:25 26.8 °F 5.7 °F 1011.7 in WSW 13.0 mph 13.0 mph 26 % 0.0 in
15:30 27.1 °F 5.9 °F 1011.7 in SSW 16.7 mph 16.7 mph 26 % 0.0 in
15:35 26.8 °F 5.7 °F 1011.7 in WSW 13.0 mph 13.0 mph 26 % 0.0 in
15:40 26.9 °F 5.2 °F 1011.7 in WSW 16.7 mph 16.7 mph 25 % 0.0 in
15:45 27.1 °F 5.9 °F 1011.7 in WSW 9.7 mph 9.7 mph 26 % 0.0 in
15:50 26.9 °F 5.2 °F 1011.7 in West 14.8 mph 14.8 mph 25 % 0.0 in
15:55 27.1 °F 5.4 °F 1011.7 in NW 9.3 mph 9.3 mph 25 % 0.0 in
16:00 26.7 °F 5.1 °F 1011.7 in NNW 18.5 mph 18.5 mph 25 % 0.0 in
16:05 27.1 °F 5.4 °F 1011.7 in WSW 9.3 mph 9.3 mph 25 % 0.0 in
16:10 27.4 °F 6.2 °F 1011.7 in West 9.7 mph 9.7 mph 26 % 0.0 in
16:15 27.3 °F 5.6 °F 1011.7 in NW 13.0 mph 13.0 mph 25 % 0.0 in
16:20 26.9 °F 5.2 °F 1011.7 in NNW 9.3 mph 9.3 mph 25 % 0.0 in
16:25 26.5 °F 4.9 °F 1011.7 in West 9.3 mph 9.3 mph 25 % 0.0 in
16:30 27.0 °F 5.3 °F 1010.7 in West 11.1 mph 11.1 mph 25 % 0.0 in
16:35 27.0 °F 5.3 °F 1010.7 in SW 14.8 mph 14.8 mph 25 % 0.0 in
16:40 27.3 °F 6.1 °F 1010.7 in ENE 9.3 mph 9.3 mph 26 % 0.0 in
16:45 27.4 °F 6.2 °F 1010.7 in WSW 9.3 mph 9.3 mph 26 % 0.0 in
16:50 27.6 °F 6.4 °F 1010.7 in SW 16.7 mph 16.7 mph 26 % 0.0 in
16:55 27.0 °F 5.8 °F 1010.7 in SW 16.7 mph 16.7 mph 26 % 0.0 in
17:00 27.3 °F 6.1 °F 1010.7 in SW 9.5 mph 9.5 mph 26 % 0.0 in
17:05 27.1 °F 5.9 °F 1010.7 in West 16.7 mph 16.7 mph 26 % 0.0 in
17:06 27.1 °F 5.9 °F 1010.7 in WSW 8.7 mph 8.7 mph 26 % 0.0 in
17:11 27.3 °F 6.1 °F 1010.7 in SW 18.5 mph 18.5 mph 26 % 0.0 in
17:16 27.3 °F 6.1 °F 1010.7 in NW 9.3 mph 9.3 mph 26 % 0.0 in
17:21 27.2 °F 6.0 °F 1010.7 in West 11.1 mph 11.1 mph 26 % 0.0 in
17:26 27.2 °F 6.0 °F 1010.0 in SSE 14.8 mph 14.8 mph 26 % 0.0 in
17:31 27.5 °F 6.3 °F 1010.0 in WSW 12.6 mph 12.6 mph 26 % 0.0 in
17:36 27.0 °F 5.8 °F 1010.0 in SSW 14.8 mph 14.8 mph 26 % 0.0 in
17:41 26.9 °F 5.8 °F 1010.7 in West 11.1 mph 11.1 mph 26 % 0.0 in
17:46 26.6 °F 5.5 °F 1010.7 in SSW 14.8 mph 14.8 mph 26 % 0.0 in
17:51 26.6 °F 5.5 °F 1010.7 in WSW 11.1 mph 11.1 mph 26 % 0.0 in
17:56 27.0 °F 5.8 °F 1010.7 in South 11.1 mph 11.1 mph 26 % 0.0 in
18:01 26.7 °F 5.6 °F 1010.7 in WSW 13.0 mph 13.0 mph 26 % 0.0 in
18:06 27.1 °F 5.9 °F 1010.7 in West 9.3 mph 9.3 mph 26 % 0.0 in
18:11 26.5 °F 5.4 °F 1010.7 in WSW 20.4 mph 20.4 mph 26 % 0.0 in
18:16 25.9 °F 4.9 °F 1010.7 in WSW 20.4 mph 20.4 mph 26 % 0.0 in
18:21 26.4 °F 5.3 °F 1010.7 in WNW 12.2 mph 12.2 mph 26 % 0.0 in
18:26 26.0 °F 5.0 °F 1010.7 in SSW 16.7 mph 16.7 mph 26 % 0.0 in
18:31 25.9 °F 4.9 °F 1010.7 in West 24.1 mph 24.1 mph 26 % 0.0 in
18:36 25.6 °F 4.7 °F 1010.7 in WNW 20.4 mph 20.4 mph 26 % 0.0 in
18:41 25.8 °F 4.8 °F 1011.7 in SW 9.3 mph 9.5 mph 26 % 0.0 in
18:46 25.7 °F 4.7 °F 1011.7 in South 18.5 mph 18.5 mph 26 % 0.0 in
18:51 25.4 °F 4.5 °F 1011.7 in SE 14.8 mph 14.8 mph 26 % 0.0 in
18:56 25.3 °F 4.4 °F 1010.7 in SW 11.1 mph 11.1 mph 26 % 0.0 in
19:01 25.1 °F 4.2 °F 1010.7 in WSW 14.8 mph 14.8 mph 26 % 0.0 in
19:06 25.1 °F 4.8 °F 1010.7 in SW 9.3 mph 9.3 mph 27 % 0.0 in
19:11 25.2 °F 4.9 °F 1010.7 in NW 7.4 mph 7.4 mph 27 % 0.0 in
19:12 25.2 °F 4.9 °F 1010.7 in WSW 9.3 mph 9.3 mph 27 % 0.0 in
19:15 19.1 °F 5.9 °F 1015.8 in NE 4.8 mph 9.7 mph 42 % 0.0 in
19:17 25.3 °F 4.9 °F 1010.7 in SW 9.3 mph 9.3 mph 27 % 0.0 in
19:22 25.2 °F 4.9 °F 1010.7 in WSW 7.4 mph 7.4 mph 27 % 0.0 in
19:23 25.2 °F 4.9 °F 1010.7 in West 9.0 mph 9.0 mph 27 % 0.0 in
19:25 18.9 °F 6.7 °F 1015.8 in NE 3.2 mph 6.4 mph 45 % 0.0 in
19:28 25.2 °F 4.9 °F 1011.7 in SW 8.7 mph 8.7 mph 27 % 0.0 in
19:33 25.1 °F 4.8 °F 1011.7 in SW 12.2 mph 12.2 mph 27 % 0.0 in
19:35 18.6 °F 6.7 °F 1014.8 in East 8.0 mph 8.0 mph 46 % 0.0 in
19:38 25.0 °F 4.7 °F 1011.7 in SW 14.8 mph 14.8 mph 27 % 0.0 in
19:43 24.9 °F 5.1 °F 1011.7 in West 13.7 mph 13.7 mph 28 % 0.0 in
19:48 24.8 °F 5.1 °F 1011.7 in SW 14.8 mph 14.8 mph 28 % 0.0 in
19:53 24.8 °F 5.1 °F 1011.7 in SSW 7.4 mph 7.4 mph 28 % 0.0 in
19:55 18.4 °F 6.9 °F 1015.8 in ENE 4.8 mph 6.4 mph 47 % 0.0 in
19:58 24.7 °F 4.9 °F 1011.7 in SW 18.5 mph 18.5 mph 28 % 0.0 in
20:03 24.6 °F 4.9 °F 1011.7 in WSW 11.1 mph 11.1 mph 28 % 0.0 in
20:05 18.3 °F 7.1 °F 1015.8 in NE 4.8 mph 8.0 mph 48 % 0.0 in
20:08 24.3 °F 4.6 °F 1011.7 in West 13.0 mph 13.0 mph 28 % 0.0 in
20:13 24.2 °F 4.6 °F 1011.7 in NNW 9.3 mph 9.3 mph 28 % 0.0 in
20:15 18.1 °F 7.2 °F 1015.8 in NE 4.8 mph 4.8 mph 49 % 0.0 in
20:23 23.9 °F 4.3 °F 1011.7 in West 9.3 mph 9.3 mph 28 % 0.0 in
20:25 18.0 °F 7.1 °F 1014.8 in NE 8.0 mph 8.0 mph 49 % 0.0 in
20:28 23.8 °F 4.2 °F 1011.7 in WSW 9.3 mph 9.3 mph 28 % 0.0 in
20:33 23.5 °F 4.4 °F 1011.7 in WSW 9.3 mph 9.3 mph 29 % 0.0 in
20:35 17.9 °F 7.0 °F 1015.8 in NE 3.2 mph 8.0 mph 49 % 0.0 in
20:38 23.4 °F 4.3 °F 1011.7 in WSW 9.3 mph 9.3 mph 29 % 0.0 in
20:43 23.3 °F 4.3 °F 1011.7 in West 5.6 mph 5.6 mph 29 % 0.0 in
20:45 17.7 °F 7.2 °F 1015.8 in NE 1.6 mph 3.2 mph 50 % 0.0 in
20:48 23.3 °F 4.3 °F 1011.7 in WSW 3.7 mph 3.7 mph 29 % 0.0 in
20:53 23.2 °F 4.2 °F 1011.7 in SW 3.7 mph 3.7 mph 29 % 0.0 in
20:55 17.5 °F 6.9 °F 1015.8 in Calm   1.6 mph 50 % 0.0 in
20:58 23.2 °F 4.2 °F 1011.7 in WSW 2.6 mph 2.6 mph 29 % 0.0 in
21:03 23.1 °F 4.1 °F 1011.7 in SSW 7.4 mph 7.4 mph 29 % 0.0 in
21:05 17.4 °F 6.9 °F 1015.8 in NE 3.2 mph 3.2 mph 50 % 0.0 in
21:08 23.0 °F 4.0 °F 1011.7 in WNW 9.3 mph 9.3 mph 29 % 0.0 in
21:13 22.9 °F 4.4 °F 1012.8 in South 3.7 mph 3.7 mph 30 % 0.0 in
21:15 17.1 °F 6.6 °F 1015.8 in Calm   1.6 mph 50 % 0.0 in
21:18 22.9 °F 4.4 °F 1012.8 in ESE 3.7 mph 3.7 mph 30 % 0.0 in
21:23 22.8 °F 4.3 °F 1012.8 in SW 7.4 mph 7.4 mph 30 % 0.0 in
21:25 16.9 °F 7.0 °F 1015.8 in Calm   3.2 mph 52 % 0.0 in
21:28 22.7 °F 4.2 °F 1013.8 in West 9.3 mph 9.3 mph 30 % 0.0 in
21:33 22.5 °F 4.1 °F 1013.8 in WSW 7.4 mph 7.4 mph 30 % 0.0 in
21:35 16.7 °F 6.8 °F 1015.8 in WSW 1.6 mph 3.2 mph 52 % 0.0 in
21:38 22.4 °F 3.9 °F 1013.8 in North 7.4 mph 7.4 mph 30 % 0.0 in
21:43 22.4 °F 3.9 °F 1013.8 in WSW 3.7 mph 3.7 mph 30 % 0.0 in
21:45 16.8 °F 6.6 °F 1015.8 in WSW 1.6 mph 3.2 mph 51 % 0.0 in
21:48 22.3 °F 4.3 °F 1013.8 in West 3.7 mph 3.7 mph 31 % 0.0 in
21:53 22.2 °F 4.3 °F 1013.8 in WSW 5.6 mph 5.6 mph 31 % 0.0 in
21:55 16.9 °F 6.7 °F 1015.8 in WSW 1.6 mph 3.2 mph 51 % 0.0 in
21:58 22.1 °F 4.2 °F 1013.8 in SSE 7.4 mph 7.4 mph 31 % 0.0 in
22:03 22.0 °F 4.1 °F 1013.8 in SSW 7.4 mph 7.4 mph 31 % 0.0 in
22:05 16.9 °F 7.0 °F 1015.8 in Calm   4.8 mph 52 % 0.0 in
22:08 21.9 °F 4.0 °F 1013.8 in SW 9.3 mph 9.3 mph 31 % 0.0 in
22:13 21.8 °F 3.9 °F 1013.8 in WSW 5.6 mph 5.6 mph 31 % 0.0 in
22:15 16.9 °F 6.4 °F 1015.8 in WSW 3.2 mph 4.8 mph 50 % 0.0 in
22:18 21.7 °F 3.8 °F 1013.8 in WSW 5.6 mph 5.6 mph 31 % 0.0 in
22:23 21.6 °F 3.7 °F 1013.8 in WSW 3.9 mph 3.9 mph 31 % 0.0 in
22:25 16.8 °F 6.0 °F 1015.8 in Calm   3.2 mph 49 % 0.0 in
22:28 21.5 °F 3.7 °F 1014.8 in West 3.9 mph 3.9 mph 31 % 0.0 in
22:33 21.4 °F 4.0 °F 1014.8 in SW 10.3 mph 10.3 mph 32 % 0.0 in
22:35 16.8 °F 6.0 °F 1015.8 in SW 4.8 mph 4.8 mph 49 % 0.0 in
22:38 21.4 °F 4.0 °F 1014.8 in West 3.7 mph 3.7 mph 32 % 0.0 in
22:43 21.3 °F 3.9 °F 1014.8 in WSW 3.9 mph 3.9 mph 32 % 0.0 in
22:45 16.5 °F 6.1 °F 1015.8 in WSW 1.6 mph 4.8 mph 50 % 0.0 in
22:48 21.3 °F 3.9 °F 1014.8 in West 9.5 mph 9.5 mph 32 % 0.0 in
22:55 16.5 °F 5.7 °F 1015.8 in West 1.6 mph 3.2 mph 49 % 0.0 in
22:58 21.2 °F 3.8 °F 1014.8 in West 7.9 mph 7.9 mph 32 % 0.0 in
23:03 21.1 °F 3.8 °F 1014.8 in SW 3.7 mph 3.7 mph 32 % 0.0 in
23:05 16.6 °F 5.6 °F 1015.8 in West 4.8 mph 4.8 mph 48 % 0.0 in
23:08 21.1 °F 3.8 °F 1014.8 in WNW 3.7 mph 3.7 mph 32 % 0.0 in
23:13 21.1 °F 3.8 °F 1014.8 in WNW 3.7 mph 3.7 mph 32 % 0.0 in
23:15 16.2 °F 5.2 °F 1015.8 in SW 1.6 mph 4.8 mph 48 % 0.0 in
23:18 21.0 °F 4.1 °F 1014.8 in West 3.2 mph 3.2 mph 33 % 0.0 in
23:23 21.0 °F 4.1 °F 1014.8 in SW 3.7 mph 3.7 mph 33 % 0.0 in
23:24 21.0 °F 4.1 °F 1014.8 in SW 3.7 mph 3.7 mph 33 % 0.0 in
23:25 16.2 °F 5.2 °F 1015.8 in SSW 1.6 mph 4.8 mph 48 % 0.0 in
23:29 20.9 °F 4.0 °F 1014.8 in NW 5.6 mph 5.6 mph 33 % 0.0 in
23:34 20.8 °F 3.9 °F 1014.8 in NNW 3.9 mph   33 % 0.0 in
23:35 16.4 °F 5.3 °F 1015.8 in SW 3.2 mph 8.0 mph 48 % 0.0 in
23:39 20.7 °F 4.3 °F 1014.8 in West 1.9 mph   34 % 0.0 in
23:44 20.5 °F 4.5 °F 1015.8 in ESE 9.7 mph 9.7 mph 35 % 0.0 in
23:45 16.4 °F 5.1 °F 1015.8 in SW 1.6 mph 4.8 mph 47 % 0.0 in
23:49 19.9 °F 5.5 °F 1015.8 in East 7.4 mph 7.4 mph 39 % 0.0 in
23:54 19.7 °F 5.7 °F 1015.8 in NNE 5.0 mph 5.0 mph 40 % 0.0 in
23:55 16.4 °F 5.1 °F 1015.8 in WSW 4.8 mph 4.8 mph 47 % 0.0 in
23:59 19.5 °F 5.9 °F 1015.8 in NE 3.9 mph 3.9 mph 41 % 0.0 in
Meteo Sesrovires
Elogis d' Weather Underground - 1.5 mb

Guio original per  Jim McMurry - jmcmurry@mwt.net Adaptat per a la plantilla per  Wim van der Kuil - Leuven-Template.eu

Trobareu la nostra informacio del temps tambe a:

Weather Underground

AWEKAS